Time;durP1;ratioP1;P1;durP2;ratioP2;P2;SDS_P1;SDS_P2;PMS_P1;PMS_P2;Temp;Humidity;BMP_temperature;BMP_pressure;BME280_temperature;BME280_humidity;BME280_pressure;Samples;Min_cycle;Max_cycle;Signal;HPM_P1;HPM_P2
2022/04/29 00:02:21;;;;;;;12.03;8.97;;;;;;;;;;5111995;28;20453;-77
2022/04/29 00:04:48;;;;;;;9.83;8.17;;;;;;;;;;5112102;28;20450;-76
2022/04/29 00:07:15;;;;;;;11.20;9.47;;;;;;;;;;5112258;28;20438;-83
2022/04/29 00:09:43;;;;;;;10.93;8.50;;;;;;;;;;5112910;28;20882;-78
2022/04/29 00:12:11;;;;;;;9.53;8.37;;;;;;;;;;5112025;28;20474;-80
2022/04/29 00:14:39;;;;;;;11.30;8.77;;;;;;;;;;5114436;28;20446;-79
2022/04/29 00:17:06;;;;;;;12.10;8.30;;;;;;;;;;5114639;28;20934;-76
2022/04/29 00:19:34;;;;;;;10.90;8.80;;;;;;;;;;5109994;28;20517;-75
2022/04/29 00:22:01;;;;;;;10.83;9.13;;;;;;;;;;5108661;28;20943;-78
2022/04/29 00:24:28;;;;;;;9.97;7.70;;;;;;;;;;5111821;28;20442;-74
2022/04/29 00:26:55;;;;;;;9.30;7.97;;;;;;;;;;5111718;28;20477;-75
2022/04/29 00:29:23;;;;;;;8.87;7.63;;;;;;;;;;5112574;28;21009;-77
2022/04/29 00:31:51;;;;;;;10.20;7.97;;;;;;;;;;5093087;28;20479;-79
2022/04/29 00:34:19;;;;;;;10.50;8.40;;;;;;;;;;5094154;28;20567;-80
2022/04/29 00:36:46;;;;;;;11.50;8.40;;;;;;;;;;5096705;28;20449;-75
2022/04/29 00:39:13;;;;;;;10.87;8.50;;;;;;;;;;5107472;28;20887;-82
2022/04/29 00:41:44;;;;;;;10.67;8.50;;;;;;;;;;5108224;28;20458;-77
2022/04/29 00:44:12;;;;;;;10.20;8.27;;;;;;;;;;5109880;28;20449;-79
2022/04/29 00:46:40;;;;;;;11.03;8.50;;;;;;;;;;5110852;28;20442;-77
2022/04/29 00:49:10;;;;;;;11.10;9.40;;;;;;;;;;5112188;28;20470;-77
2022/04/29 00:51:37;;;;;;;9.80;8.80;;;;;;;;;;5112445;28;20562;-76
2022/04/29 00:54:06;;;;;;;13.53;8.93;;;;;;;;;;5111369;28;20541;-78
2022/04/29 00:56:36;;;;;;;13.93;8.70;;;;;;;;;;5113982;28;20442;-80
2022/04/29 00:59:06;;;;;;;11.20;8.87;;;;;;;;;;5112198;28;20783;-77
2022/04/29 01:01:36;;;;;;;9.93;8.70;;;;;;;;;;5109883;28;20543;-77
2022/04/29 01:04:04;;;;;;;12.50;8.03;;;;;;;;;;5107252;28;20442;-75
2022/04/29 01:06:32;;;;;;;11.70;10.50;;;;;;;;;;5110656;28;20434;-79
2022/04/29 01:09:00;;;;;;;11.33;9.20;;;;;;;;;;5111637;28;20478;-77
2022/04/29 01:11:27;;;;;;;11.43;9.03;;;;;;;;;;5111879;28;20462;-80
2022/04/29 01:13:55;;;;;;;9.90;8.50;;;;;;;;;;5111094;28;20440;-80
2022/04/29 01:16:23;;;;;;;11.33;9.13;;;;;;;;;;5112417;28;20449;-76
2022/04/29 01:18:52;;;;;;;10.03;8.60;;;;;;;;;;5114161;28;20438;-77
2022/04/29 01:21:19;;;;;;;12.80;8.83;;;;;;;;;;5112692;28;20868;-79
2022/04/29 01:23:48;;;;;;;10.77;8.63;;;;;;;;;;5110359;28;20439;-78
2022/04/29 01:26:16;;;;;;;11.87;9.80;;;;;;;;;;5109393;28;20458;-76
2022/04/29 01:28:44;;;;;;;10.23;9.07;;;;;;;;;;5111654;28;20497;-80
2022/04/29 01:31:11;;;;;;;12.20;9.07;;;;;;;;;;5110208;28;20458;-78
2022/04/29 01:33:39;;;;;;;10.27;8.67;;;;;;;;;;5111780;28;20855;-81
2022/04/29 01:36:07;;;;;;;10.83;9.53;;;;;;;;;;5111972;28;20461;-81
2022/04/29 01:38:34;;;;;;;12.10;9.40;;;;;;;;;;5112089;28;20485;-79
2022/04/29 01:41:02;;;;;;;12.40;8.90;;;;;;;;;;5113653;28;20466;-79
2022/04/29 01:43:30;;;;;;;12.67;9.43;;;;;;;;;;5112659;28;20927;-75
2022/04/29 01:45:57;;;;;;;14.83;10.00;;;;;;;;;;5109466;28;20442;-78
2022/04/29 01:48:25;;;;;;;10.30;9.20;;;;;;;;;;5109614;28;20439;-82
2022/04/29 01:50:52;;;;;;;11.87;9.10;;;;;;;;;;5111048;28;20465;-75
2022/04/29 01:53:19;;;;;;;12.80;10.57;;;;;;;;;;5109755;28;20438;-79
2022/04/29 01:55:46;;;;;;;13.40;10.40;;;;;;;;;;5111754;28;20442;-77
2022/04/29 01:58:15;;;;;;;14.00;8.80;;;;;;;;;;5114262;28;20442;-79
2022/04/29 02:00:43;;;;;;;11.33;9.20;;;;;;;;;;5115283;28;20466;-81
2022/04/29 02:03:10;;;;;;;10.60;9.50;;;;;;;;;;5117141;28;20451;-75
2022/04/29 02:05:37;;;;;;;11.10;9.63;;;;;;;;;;5116783;28;20442;-79
2022/04/29 02:08:04;;;;;;;9.77;8.77;;;;;;;;;;5112278;28;20443;-74
2022/04/29 02:10:32;;;;;;;9.90;8.90;;;;;;;;;;5112728;28;20985;-76
2022/04/29 02:12:59;;;;;;;10.10;9.07;;;;;;;;;;5114459;28;20458;-76
2022/04/29 02:15:28;;;;;;;10.17;8.83;;;;;;;;;;5114560;28;20443;-76
2022/04/29 02:17:55;;;;;;;12.80;9.70;;;;;;;;;;5113709;28;20442;-80
2022/04/29 02:20:22;;;;;;;13.37;10.73;;;;;;;;;;5114763;28;20477;-76
2022/04/29 02:22:49;;;;;;;13.20;10.00;;;;;;;;;;5114593;28;20454;-80
2022/04/29 02:25:16;;;;;;;13.97;10.10;;;;;;;;;;5116232;28;20959;-82
2022/04/29 02:27:44;;;;;;;11.13;9.70;;;;;;;;;;5116521;28;20797;-80
2022/04/29 02:30:13;;;;;;;12.50;10.53;;;;;;;;;;5111814;28;20826;-77
2022/04/29 02:32:42;;;;;;;13.40;10.90;;;;;;;;;;5112495;28;20530;-78
2022/04/29 02:35:10;;;;;;;11.73;10.40;;;;;;;;;;5113559;28;20446;-76
2022/04/29 02:37:37;;;;;;;13.03;10.17;;;;;;;;;;5113990;28;20448;-80
2022/04/29 02:40:04;;;;;;;13.10;10.23;;;;;;;;;;5114294;28;20442;-78
2022/04/29 02:42:31;;;;;;;12.50;9.70;;;;;;;;;;5114948;28;20497;-80
2022/04/29 02:44:59;;;;;;;14.00;10.83;;;;;;;;;;5114367;28;20448;-78
2022/04/29 02:47:26;;;;;;;12.20;9.77;;;;;;;;;;5116815;28;20441;-76
2022/04/29 02:49:55;;;;;;;14.90;10.37;;;;;;;;;;5116116;28;20482;-80
2022/04/29 02:52:22;;;;;;;13.23;10.37;;;;;;;;;;5111517;28;20830;-77
2022/04/29 02:54:50;;;;;;;15.70;10.97;;;;;;;;;;5112143;28;20802;-79
2022/04/29 02:57:17;;;;;;;12.33;11.00;;;;;;;;;;5113196;28;20778;-79
2022/04/29 02:59:44;;;;;;;15.03;11.23;;;;;;;;;;5113537;28;20431;-78
2022/04/29 03:02:11;;;;;;;14.67;10.40;;;;;;;;;;5113547;28;20816;-79
2022/04/29 03:04:38;;;;;;;14.47;11.23;;;;;;;;;;5114039;28;20939;-81
2022/04/29 03:07:07;;;;;;;12.47;9.60;;;;;;;;;;5113759;28;20458;-76
2022/04/29 03:09:34;;;;;;;13.70;10.20;;;;;;;;;;5115431;28;20481;-75
2022/04/29 03:12:01;;;;;;;15.00;10.90;;;;;;;;;;5115696;28;20458;-78
2022/04/29 03:14:29;;;;;;;14.57;10.93;;;;;;;;;;5111245;28;20435;-75
2022/04/29 03:16:56;;;;;;;11.80;9.80;;;;;;;;;;5111332;28;20826;-79
2022/04/29 03:19:23;;;;;;;12.83;11.10;;;;;;;;;;5113052;28;20442;-76
2022/04/29 03:21:50;;;;;;;12.20;10.10;;;;;;;;;;5112979;28;20462;-81
2022/04/29 03:24:19;;;;;;;11.40;10.20;;;;;;;;;;5113323;28;20438;-79
2022/04/29 03:26:46;;;;;;;13.90;11.33;;;;;;;;;;5113558;28;20771;-78
2022/04/29 03:29:14;;;;;;;12.80;10.90;;;;;;;;;;5112957;28;20478;-79
2022/04/29 03:31:41;;;;;;;13.17;10.40;;;;;;;;;;5114379;28;20462;-76
2022/04/29 03:34:08;;;;;;;15.73;10.60;;;;;;;;;;5115204;28;20451;-75
2022/04/29 03:36:36;;;;;;;12.70;10.60;;;;;;;;;;5110989;28;20919;-77
2022/04/29 03:39:04;;;;;;;15.00;10.57;;;;;;;;;;5110761;28;20438;-77
2022/04/29 03:41:33;;;;;;;13.57;10.17;;;;;;;;;;5112194;28;20462;-76
2022/04/29 03:44:00;;;;;;;12.57;10.13;;;;;;;;;;5112419;28;20450;-81
2022/04/29 03:46:27;;;;;;;13.57;10.93;;;;;;;;;;5113194;28;20442;-74
2022/04/29 03:51:35;;;;;;;13.43;10.20;;;;;;;;;;5112326;28;20519;-79
2022/04/29 03:54:03;;;;;;;13.03;10.93;;;;;;;;;;5115041;28;20518;-78
2022/04/29 03:56:30;;;;;;;15.13;11.23;;;;;;;;;;5114780;28;20438;-75
2022/04/29 03:58:58;;;;;;;14.83;11.23;;;;;;;;;;5110519;28;20438;-77
2022/04/29 04:01:27;;;;;;;13.70;11.47;;;;;;;;;;5110456;28;20450;-82
2022/04/29 04:03:55;;;;;;;13.63;10.73;;;;;;;;;;5112719;28;20528;-77
2022/04/29 04:09:03;;;;;;;14.80;10.90;;;;;;;;;;5112052;28;20426;-77
2022/04/29 04:11:30;;;;;;;12.47;9.80;;;;;;;;;;5112809;28;20462;-75
2022/04/29 04:13:59;;;;;;;13.60;11.20;;;;;;;;;;5112541;28;20446;-78
2022/04/29 04:16:26;;;;;;;13.57;10.70;;;;;;;;;;5114560;28;20434;-79
2022/04/29 04:18:53;;;;;;;14.57;11.93;;;;;;;;;;5114706;28;20438;-81
2022/04/29 04:21:20;;;;;;;13.50;11.70;;;;;;;;;;5108815;28;20454;-80
2022/04/29 04:23:47;;;;;;;15.67;12.00;;;;;;;;;;5110323;28;20427;-84
2022/04/29 04:26:15;;;;;;;14.50;11.93;;;;;;;;;;5111625;28;20836;-76
2022/04/29 04:28:42;;;;;;;12.70;10.70;;;;;;;;;;5111984;28;20442;-80
2022/04/29 04:31:12;;;;;;;13.17;10.83;;;;;;;;;;5111987;28;20569;-74
2022/04/29 04:33:39;;;;;;;15.47;11.20;;;;;;;;;;5112963;28;20443;-81
2022/04/29 04:36:06;;;;;;;16.50;12.03;;;;;;;;;;5112605;28;20974;-80
2022/04/29 04:38:36;;;;;;;15.77;12.43;;;;;;;;;;5114922;28;20449;-80
2022/04/29 04:41:04;;;;;;;18.03;12.27;;;;;;;;;;5114171;28;20458;-75
2022/04/29 04:43:31;;;;;;;13.90;11.20;;;;;;;;;;5109763;28;20438;-78
2022/04/29 04:45:58;;;;;;;15.40;12.30;;;;;;;;;;5108475;28;20934;-76
2022/04/29 04:48:27;;;;;;;17.10;12.27;;;;;;;;;;5111409;28;20454;-77
2022/04/29 04:50:54;;;;;;;11.90;10.53;;;;;;;;;;5111670;28;20478;-78
2022/04/29 04:53:22;;;;;;;13.40;11.90;;;;;;;;;;5111876;28;20438;-80
2022/04/29 04:55:49;;;;;;;17.60;11.67;;;;;;;;;;5112865;28;20438;-81
2022/04/29 04:58:16;;;;;;;13.63;10.10;;;;;;;;;;5111801;28;20446;-82
2022/04/29 05:00:43;;;;;;;16.13;11.60;;;;;;;;;;5113827;28;20462;-77
2022/04/29 05:03:11;;;;;;;14.67;11.43;;;;;;;;;;5112936;28;20446;-79
2022/04/29 05:05:40;;;;;;;15.87;11.70;;;;;;;;;;5110097;28;20523;-77
2022/04/29 05:08:07;;;;;;;14.43;11.90;;;;;;;;;;5109374;28;20449;-78
2022/04/29 05:10:35;;;;;;;15.90;13.03;;;;;;;;;;5109701;28;20475;-78
2022/04/29 05:13:02;;;;;;;17.57;11.67;;;;;;;;;;5111564;28;20438;-76
2022/04/29 05:15:29;;;;;;;14.00;11.83;;;;;;;;;;5111585;28;20449;-79
2022/04/29 05:17:57;;;;;;;17.17;10.40;;;;;;;;;;5112373;28;20862;-81
2022/04/29 05:20:24;;;;;;;14.70;10.90;;;;;;;;;;5111250;28;20803;-77
2022/04/29 05:22:52;;;;;;;16.33;11.67;;;;;;;;;;5113645;28;20928;-77
2022/04/29 05:25:20;;;;;;;13.00;10.83;;;;;;;;;;5107746;28;20478;-78
2022/04/29 05:27:47;;;;;;;14.63;11.33;;;;;;;;;;5109096;28;21573;-77
2022/04/29 05:30:14;;;;;;;16.00;10.90;;;;;;;;;;5102024;28;20471;-77
2022/04/29 05:32:42;;;;;;;13.33;11.07;;;;;;;;;;5094312;28;20434;-76
2022/04/29 05:35:10;;;;;;;13.33;11.10;;;;;;;;;;5094859;28;20805;-77
2022/04/29 05:37:37;;;;;;;15.23;11.23;;;;;;;;;;5098472;28;20455;-76
2022/04/29 05:42:47;;;;;;;16.33;11.70;;;;;;;;;;5122650;27;20452;-77
2022/04/29 05:45:14;;;;;;;13.20;10.93;;;;;;;;;;5137912;27;20433;-77
2022/04/29 05:47:41;;;;;;;15.53;10.77;;;;;;;;;;5123231;27;20927;-76
2022/04/29 05:50:09;;;;;;;16.33;10.47;;;;;;;;;;5105802;28;20478;-76
2022/04/29 05:52:36;;;;;;;16.60;12.43;;;;;;;;;;5109297;28;20963;-75
2022/04/29 05:55:06;;;;;;;18.63;11.50;;;;;;;;;;5114709;28;20443;-75
2022/04/29 05:57:35;;;;;;;18.03;12.00;;;;;;;;;;5100024;28;20545;-75
2022/04/29 06:00:02;;;;;;;13.13;11.60;;;;;;;;;;5102445;28;20449;-75
2022/04/29 06:02:29;;;;;;;19.67;12.57;;;;;;;;;;5114698;28;20439;-75
2022/04/29 06:04:57;;;;;;;13.37;10.30;;;;;;;;;;5107551;28;20548;-75
2022/04/29 06:07:24;;;;;;;16.07;12.50;;;;;;;;;;5111854;28;20427;-75
2022/04/29 06:09:51;;;;;;;13.60;10.27;;;;;;;;;;5113586;28;20768;-75
2022/04/29 06:12:19;;;;;;;15.63;11.67;;;;;;;;;;5114359;28;20504;-75
2022/04/29 06:14:47;;;;;;;13.30;11.57;;;;;;;;;;5114559;28;20854;-76
2022/04/29 06:17:15;;;;;;;11.10;10.00;;;;;;;;;;5115011;28;20434;-77
2022/04/29 06:19:42;;;;;;;14.87;10.00;;;;;;;;;;5114479;28;20923;-76
2022/04/29 06:22:09;;;;;;;17.03;12.00;;;;;;;;;;5114537;28;20485;-76
2022/04/29 06:24:37;;;;;;;13.77;11.33;;;;;;;;;;5116674;28;20430;-79
2022/04/29 06:27:05;;;;;;;13.60;11.43;;;;;;;;;;5113379;28;20563;-77
2022/04/29 06:29:32;;;;;;;12.70;10.97;;;;;;;;;;5110389;28;20446;-77
2022/04/29 06:32:01;;;;;;;14.77;11.93;;;;;;;;;;5112820;28;20478;-81
2022/04/29 06:34:28;;;;;;;16.27;12.10;;;;;;;;;;5114118;28;20438;-77
2022/04/29 06:36:55;;;;;;;13.40;10.67;;;;;;;;;;5113977;28;20481;-77
2022/04/29 06:39:22;;;;;;;18.90;11.83;;;;;;;;;;5114333;28;20430;-77
2022/04/29 06:41:50;;;;;;;16.53;11.77;;;;;;;;;;5114479;28;20521;-75
2022/04/29 06:44:17;;;;;;;14.53;12.07;;;;;;;;;;5114491;28;20467;-76
2022/04/29 06:46:45;;;;;;;13.53;11.47;;;;;;;;;;5115999;28;20442;-76
2022/04/29 06:49:13;;;;;;;13.63;11.40;;;;;;;;;;5114281;28;20515;-76
2022/04/29 06:51:40;;;;;;;15.10;11.37;;;;;;;;;;5111074;28;21018;-77
2022/04/29 06:54:08;;;;;;;14.43;12.70;;;;;;;;;;5112239;28;20438;-77
2022/04/29 06:56:35;;;;;;;16.77;12.40;;;;;;;;;;5113770;28;20476;-76
2022/04/29 06:59:03;;;;;;;13.30;11.63;;;;;;;;;;5113709;28;20861;-78
2022/04/29 07:01:32;;;;;;;15.27;11.23;;;;;;;;;;5108548;28;20460;-78
2022/04/29 07:03:59;;;;;;;17.13;12.37;;;;;;;;;;5110772;28;20470;-78
2022/04/29 07:06:28;;;;;;;12.20;10.90;;;;;;;;;;5114218;28;20464;-77
2022/04/29 07:08:55;;;;;;;16.07;11.23;;;;;;;;;;5115724;28;20441;-77
2022/04/29 07:11:23;;;;;;;15.90;11.90;;;;;;;;;;5114575;28;20509;-77
2022/04/29 07:13:51;;;;;;;13.77;12.23;;;;;;;;;;5110969;28;20457;-77
2022/04/29 07:16:18;;;;;;;16.10;11.90;;;;;;;;;;5111410;28;20438;-77
2022/04/29 07:18:45;;;;;;;14.00;11.07;;;;;;;;;;5113041;28;20486;-77
2022/04/29 07:21:13;;;;;;;13.53;11.40;;;;;;;;;;5113275;28;20810;-77
2022/04/29 07:23:41;;;;;;;17.30;11.87;;;;;;;;;;5113252;28;20947;-77
2022/04/29 07:26:08;;;;;;;14.87;11.17;;;;;;;;;;5113404;28;20466;-76
2022/04/29 07:28:35;;;;;;;14.17;10.83;;;;;;;;;;5113569;28;20814;-77
2022/04/29 07:31:03;;;;;;;13.83;12.20;;;;;;;;;;5115138;28;20841;-77
2022/04/29 07:33:30;;;;;;;15.37;12.90;;;;;;;;;;5115330;28;20471;-76
2022/04/29 07:44:02;;;;;;;15.97;11.50;;;;;;;;;;5112404;28;20471;-75
2022/04/29 07:46:29;;;;;;;18.13;13.10;;;;;;;;;;5112878;28;20781;-77
2022/04/29 07:48:56;;;;;;;13.77;12.20;;;;;;;;;;5113286;28;20419;-77
2022/04/29 07:51:24;;;;;;;13.83;12.50;;;;;;;;;;5113030;28;20988;-77
2022/04/29 07:53:51;;;;;;;19.80;13.80;;;;;;;;;;5114470;28;20417;-76
2022/04/29 07:56:18;;;;;;;14.23;12.77;;;;;;;;;;5112697;28;20432;-77
2022/04/29 07:58:46;;;;;;;12.03;10.73;;;;;;;;;;5110220;28;20445;-76
2022/04/29 08:01:15;;;;;;;17.83;12.27;;;;;;;;;;5110300;28;20789;-77
2022/04/29 08:03:43;;;;;;;16.23;11.63;;;;;;;;;;5111978;28;20427;-79
2022/04/29 08:06:10;;;;;;;13.23;11.97;;;;;;;;;;5112409;28;20479;-78
2022/04/29 08:08:38;;;;;;;13.53;10.53;;;;;;;;;;5112908;28;20435;-78
2022/04/29 08:11:05;;;;;;;13.73;12.33;;;;;;;;;;5113007;28;20516;-78
2022/04/29 08:13:33;;;;;;;15.47;13.33;;;;;;;;;;5112726;28;20481;-76
2022/04/29 08:16:01;;;;;;;16.80;13.67;;;;;;;;;;5113715;28;20856;-77
2022/04/29 08:18:29;;;;;;;15.80;12.83;;;;;;;;;;5114968;28;20416;-78
2022/04/29 08:20:56;;;;;;;16.77;13.50;;;;;;;;;;5112016;28;20462;-79
2022/04/29 08:23:23;;;;;;;14.67;10.80;;;;;;;;;;5111529;28;20495;-77
2022/04/29 08:25:51;;;;;;;14.43;12.13;;;;;;;;;;5091889;28;20838;-78
2022/04/29 08:28:18;;;;;;;14.60;12.33;;;;;;;;;;5091499;28;20931;-79
2022/04/29 08:30:45;;;;;;;16.50;12.17;;;;;;;;;;5091666;28;20482;-77
2022/04/29 08:33:14;;;;;;;14.37;11.67;;;;;;;;;;5092041;28;20418;-78
2022/04/29 08:35:42;;;;;;;12.57;11.27;;;;;;;;;;5094822;28;20801;-78
2022/04/29 08:38:10;;;;;;;11.70;10.13;;;;;;;;;;5114302;28;20927;-78
2022/04/29 08:40:37;;;;;;;13.60;11.40;;;;;;;;;;5113022;28;20819;-80
2022/04/29 08:43:05;;;;;;;16.90;11.37;;;;;;;;;;5110075;28;20452;-79
2022/04/29 08:45:32;;;;;;;11.87;10.63;;;;;;;;;;5109510;28;20417;-80
2022/04/29 08:48:00;;;;;;;12.93;11.73;;;;;;;;;;5111074;28;20412;-80
2022/04/29 08:50:30;;;;;;;17.97;12.93;;;;;;;;;;5111620;28;20465;-79
2022/04/29 08:52:58;;;;;;;16.70;13.00;;;;;;;;;;5111971;28;20779;-79
2022/04/29 09:00:48;;;;;;;15.27;12.17;;;;;;;;;;5113612;28;20417;-80
2022/04/29 09:03:18;;;;;;;13.13;11.50;;;;;;;;;;5114054;28;20412;-78
2022/04/29 09:05:47;;;;;;;13.40;11.70;;;;;;;;;;5108520;28;20442;-80
2022/04/29 09:08:14;;;;;;;13.27;11.37;;;;;;;;;;5113769;28;20439;-77
2022/04/29 09:10:49;;;;;;;14.37;11.43;;;;;;;;;;5113806;28;20462;-78
2022/04/29 09:13:17;;;;;;;11.30;10.20;;;;;;;;;;5114518;28;20438;-79
2022/04/29 09:15:48;;;;;;;14.67;12.60;;;;;;;;;;5116158;28;20446;-79
2022/04/29 09:18:16;;;;;;;15.10;13.20;;;;;;;;;;5116154;28;20434;-78
2022/04/29 09:20:43;;;;;;;15.17;12.90;;;;;;;;;;5115792;28;20470;-79
2022/04/29 09:23:14;;;;;;;13.57;12.17;;;;;;;;;;5117986;28;20442;-79
2022/04/29 09:25:42;;;;;;;15.57;12.80;;;;;;;;;;5117675;28;20480;-78
2022/04/29 09:28:09;;;;;;;14.50;12.47;;;;;;;;;;5113181;28;20430;-79
2022/04/29 09:30:38;;;;;;;15.97;11.97;;;;;;;;;;5113236;28;20456;-78
2022/04/29 09:33:05;;;;;;;14.23;11.93;;;;;;;;;;5114870;28;20446;-78
2022/04/29 09:35:37;;;;;;;15.17;12.00;;;;;;;;;;5115436;28;20473;-77
2022/04/29 09:40:47;;;;;;;13.70;12.03;;;;;;;;;;5115445;28;20790;-78
2022/04/29 09:43:14;;;;;;;17.33;13.73;;;;;;;;;;5115825;28;20806;-80
2022/04/29 09:45:41;;;;;;;20.40;13.97;;;;;;;;;;5117712;28;20434;-78
2022/04/29 09:48:10;;;;;;;17.90;14.07;;;;;;;;;;5115197;28;20433;-75
2022/04/29 09:50:52;;;;;;;16.67;12.83;;;;;;;;;;5112537;28;20791;-73
2022/04/29 09:53:20;;;;;;;17.37;14.97;;;;;;;;;;5112989;28;20961;-75
2022/04/29 09:56:02;;;;;;;19.27;14.30;;;;;;;;;;5113792;28;20444;-75
2022/04/29 09:58:31;;;;;;;15.10;13.47;;;;;;;;;;5113992;28;20434;-75
2022/04/29 10:00:58;;;;;;;18.97;13.83;;;;;;;;;;5115148;28;20462;-75
2022/04/29 10:03:25;;;;;;;12.40;11.10;;;;;;;;;;5115022;28;20434;-75
2022/04/29 10:05:53;;;;;;;17.47;13.73;;;;;;;;;;5116183;28;20442;-75
2022/04/29 10:08:20;;;;;;;13.40;11.20;;;;;;;;;;5117026;28;20537;-76
2022/04/29 10:10:48;;;;;;;19.50;15.47;;;;;;;;;;5113092;28;20466;-75
2022/04/29 10:13:16;;;;;;;14.50;12.10;;;;;;;;;;5111378;28;20534;-75
2022/04/29 10:15:47;;;;;;;16.10;13.70;;;;;;;;;;5113144;28;20446;-76
2022/04/29 10:23:38;;;;;;;18.97;13.23;;;;;;;;;;5113340;28;20427;-76
2022/04/29 10:26:06;;;;;;;19.83;16.20;;;;;;;;;;5114537;28;20828;-76
2022/04/29 10:28:34;;;;;;;16.87;14.47;;;;;;;;;;5116069;28;20441;-75
2022/04/29 10:31:05;;;;;;;17.10;13.97;;;;;;;;;;5105653;28;20544;-76
2022/04/29 10:33:32;;;;;;;17.40;13.50;;;;;;;;;;5103715;28;20438;-75
2022/04/29 10:36:06;;;;;;;16.50;12.50;;;;;;;;;;5110586;28;20545;-76
2022/04/29 10:38:34;;;;;;;17.73;13.60;;;;;;;;;;5110997;28;20468;-75
2022/04/29 10:41:10;;;;;;;16.50;12.23;;;;;;;;;;5114096;28;20500;-75
2022/04/29 10:43:38;;;;;;;18.50;12.97;;;;;;;;;;5112181;28;20807;-76
2022/04/29 10:46:21;;;;;;;13.93;11.87;;;;;;;;;;5114541;28;20992;-75
2022/04/29 10:48:50;;;;;;;13.43;11.90;;;;;;;;;;5099966;28;20454;-74
2022/04/29 10:51:18;;;;;;;18.90;16.83;;;;;;;;;;5095429;28;21016;-76
2022/04/29 10:53:46;;;;;;;16.87;14.03;;;;;;;;;;5103049;28;20818;-77
2022/04/29 10:56:28;;;;;;;18.40;15.07;;;;;;;;;;5114257;28;20445;-78
2022/04/29 10:58:55;;;;;;;17.03;15.43;;;;;;;;;;5110058;28;20454;-76
2022/04/29 11:01:24;;;;;;;16.60;14.80;;;;;;;;;;5110904;28;20477;-76
2022/04/29 11:03:52;;;;;;;18.20;15.07;;;;;;;;;;5113680;28;20466;-75
2022/04/29 11:06:19;;;;;;;20.20;16.13;;;;;;;;;;5100010;28;20469;-76
2022/04/29 11:08:48;;;;;;;16.33;14.63;;;;;;;;;;5095880;28;20447;-75
2022/04/29 11:11:15;;;;;;;17.83;15.93;;;;;;;;;;5105260;28;20837;-74
2022/04/29 11:13:44;;;;;;;17.70;14.13;;;;;;;;;;5098246;28;20463;-76
2022/04/29 11:16:13;;;;;;;17.97;15.93;;;;;;;;;;5110064;28;20965;-75
2022/04/29 11:18:41;;;;;;;18.60;14.10;;;;;;;;;;5114429;28;20431;-76
2022/04/29 11:26:42;;;;;;;15.93;13.40;;;;;;;;;;5092241;28;20788;-77
2022/04/29 11:29:11;;;;;;;18.90;14.50;;;;;;;;;;5101213;28;20456;-82
2022/04/29 11:31:38;;;;;;;18.83;14.33;;;;;;;;;;5112122;28;20481;-79
2022/04/29 11:34:07;;;;;;;13.40;11.70;;;;;;;;;;5095150;27;20455;-78
2022/04/29 11:36:35;;;;;;;17.53;12.97;;;;;;;;;;5107380;28;20445;-79
2022/04/29 11:39:09;;;;;;;17.30;13.60;;;;;;;;;;5108704;28;20442;-78
2022/04/29 11:41:36;;;;;;;18.63;12.43;;;;;;;;;;5110745;28;20452;-75
2022/04/29 11:44:03;;;;;;;20.17;13.13;;;;;;;;;;5097554;28;20444;-79
2022/04/29 11:46:31;;;;;;;18.70;14.73;;;;;;;;;;5093719;28;20440;-82
2022/04/29 11:48:59;;;;;;;17.23;12.20;;;;;;;;;;5107847;28;20446;-76
2022/04/29 11:51:27;;;;;;;14.83;13.03;;;;;;;;;;5109213;28;20552;-76
2022/04/29 11:53:56;;;;;;;12.90;11.10;;;;;;;;;;5092924;28;20455;-75
2022/04/29 11:56:24;;;;;;;16.27;13.47;;;;;;;;;;5095774;28;20457;-75
2022/04/29 11:58:53;;;;;;;19.10;12.27;;;;;;;;;;5102555;28;20454;-75
2022/04/29 12:01:20;;;;;;;17.60;13.50;;;;;;;;;;5106350;28;20527;-75
2022/04/29 12:03:48;;;;;;;16.00;12.83;;;;;;;;;;5097460;28;20510;-74
2022/04/29 12:06:16;;;;;;;11.73;10.60;;;;;;;;;;5092975;28;20459;-75
2022/04/29 12:08:44;;;;;;;17.27;12.73;;;;;;;;;;5098768;28;20499;-76
2022/04/29 12:11:12;;;;;;;16.57;12.47;;;;;;;;;;5109962;27;20477;-75
2022/04/29 12:13:39;;;;;;;14.60;12.03;;;;;;;;;;5102947;27;20489;-76
2022/04/29 12:16:07;;;;;;;13.40;12.10;;;;;;;;;;5096446;28;20959;-75
2022/04/29 12:18:49;;;;;;;16.80;13.10;;;;;;;;;;5099590;28;20945;-76
2022/04/29 12:21:23;;;;;;;16.43;12.10;;;;;;;;;;5103857;28;20981;-77
2022/04/29 12:23:50;;;;;;;15.80;12.17;;;;;;;;;;5095334;28;20462;-77
2022/04/29 12:26:18;;;;;;;13.50;11.87;;;;;;;;;;5087492;28;20485;-78
2022/04/29 12:28:53;;;;;;;12.93;11.63;;;;;;;;;;5090121;28;20967;-76
2022/04/29 12:36:47;;;;;;;14.60;11.10;;;;;;;;;;5091143;28;20458;-75
2022/04/29 12:39:15;;;;;;;14.60;11.53;;;;;;;;;;5088616;28;20459;-75
2022/04/29 12:41:43;;;;;;;16.03;12.23;;;;;;;;;;5098044;28;20481;-77
2022/04/29 12:44:11;;;;;;;12.00;10.37;;;;;;;;;;5103085;28;20446;-76
2022/04/29 12:46:38;;;;;;;16.87;10.90;;;;;;;;;;5104424;28;20454;-75
2022/04/29 12:49:06;;;;;;;13.00;10.30;;;;;;;;;;5086860;28;20459;-79
2022/04/29 12:51:33;;;;;;;11.87;10.53;;;;;;;;;;5087214;28;20471;-80
2022/04/29 12:54:01;;;;;;;11.10;9.50;;;;;;;;;;5086079;28;20455;-81
2022/04/29 12:56:29;;;;;;;14.90;11.50;;;;;;;;;;5087981;28;20458;-76
2022/04/29 12:58:58;;;;;;;14.40;8.97;;;;;;;;;;5089561;28;20454;-76
2022/04/29 13:01:26;;;;;;;16.50;12.40;;;;;;;;;;5088948;28;20479;-74
2022/04/29 13:03:54;;;;;;;11.30;8.93;;;;;;;;;;5094547;28;20458;-76
2022/04/29 13:06:21;;;;;;;12.27;8.93;;;;;;;;;;5106580;28;20515;-77
2022/04/29 13:08:53;;;;;;;20.43;13.00;;;;;;;;;;5109347;28;20447;-78
2022/04/29 13:11:20;;;;;;;13.47;10.30;;;;;;;;;;5108145;28;20562;-76
2022/04/29 13:13:48;;;;;;;10.13;7.87;;;;;;;;;;5112247;28;20556;-75
2022/04/29 13:16:16;;;;;;;11.23;10.13;;;;;;;;;;5111976;28;20515;-76
2022/04/29 13:18:43;;;;;;;10.87;9.73;;;;;;;;;;5113955;28;20446;-79
2022/04/29 13:21:11;;;;;;;17.43;10.00;;;;;;;;;;5098727;28;20554;-76
2022/04/29 13:23:39;;;;;;;11.17;8.80;;;;;;;;;;5107661;28;20433;-77
2022/04/29 13:26:06;;;;;;;10.60;8.07;;;;;;;;;;5099070;28;20478;-76
2022/04/29 13:28:34;;;;;;;13.00;10.57;;;;;;;;;;5107624;28;20502;-76
2022/04/29 13:31:01;;;;;;;12.63;9.10;;;;;;;;;;5102277;28;20500;-76
2022/04/29 13:33:30;;;;;;;13.63;9.67;;;;;;;;;;5090344;28;20471;-78
2022/04/29 13:35:57;;;;;;;13.27;10.40;;;;;;;;;;5094669;28;20459;-77
2022/04/29 13:38:25;;;;;;;17.33;10.70;;;;;;;;;;5091828;28;20456;-75
2022/04/29 13:40:52;;;;;;;15.90;10.90;;;;;;;;;;5093780;28;20463;-76
2022/04/29 13:43:20;;;;;;;16.60;10.93;;;;;;;;;;5096446;28;20423;-77
2022/04/29 13:45:47;;;;;;;16.33;13.40;;;;;;;;;;5105177;28;20450;-78
2022/04/29 13:48:15;;;;;;;16.13;11.93;;;;;;;;;;5093633;28;20451;-77
2022/04/29 13:50:44;;;;;;;17.93;13.30;;;;;;;;;;5081013;28;20474;-78
2022/04/29 13:53:13;;;;;;;15.87;10.70;;;;;;;;;;5085892;28;20479;-77
2022/04/29 13:55:41;;;;;;;14.50;10.60;;;;;;;;;;5091277;28;20454;-77
2022/04/29 13:58:10;;;;;;;15.77;12.10;;;;;;;;;;5090928;28;20469;-76
2022/04/29 14:00:37;;;;;;;15.93;12.00;;;;;;;;;;5096110;28;20512;-76
2022/04/29 14:03:05;;;;;;;18.83;12.20;;;;;;;;;;5104345;28;20448;-76
2022/04/29 14:05:32;;;;;;;15.13;12.20;;;;;;;;;;5112177;28;20440;-77
2022/04/29 14:08:00;;;;;;;16.27;12.10;;;;;;;;;;5108072;27;20454;-77
2022/04/29 14:10:28;;;;;;;15.07;11.27;;;;;;;;;;5108804;28;20450;-77
2022/04/29 14:12:55;;;;;;;12.90;10.40;;;;;;;;;;5098271;28;20488;-76
2022/04/29 14:15:22;;;;;;;18.80;11.57;;;;;;;;;;5099825;28;20542;-77
2022/04/29 14:17:50;;;;;;;12.37;10.73;;;;;;;;;;5110492;28;20450;-78
2022/04/29 14:20:17;;;;;;;12.47;10.33;;;;;;;;;;5097804;28;20447;-75
2022/04/29 14:22:47;;;;;;;14.53;11.00;;;;;;;;;;5090798;28;20485;-77
2022/04/29 14:25:15;;;;;;;17.03;10.97;;;;;;;;;;5091962;28;20487;-77
2022/04/29 14:27:43;;;;;;;12.90;10.60;;;;;;;;;;5102929;28;20454;-76
2022/04/29 14:30:11;;;;;;;12.00;10.43;;;;;;;;;;5102725;28;20461;-79
2022/04/29 14:32:40;;;;;;;12.77;10.60;;;;;;;;;;5104573;28;20467;-76
2022/04/29 14:35:09;;;;;;;13.97;10.87;;;;;;;;;;5089677;28;20451;-77
2022/04/29 14:37:36;;;;;;;14.77;10.30;;;;;;;;;;5092623;28;20450;-77
2022/04/29 14:40:04;;;;;;;15.30;10.10;;;;;;;;;;5090548;28;20457;-77
2022/04/29 14:42:33;;;;;;;13.00;8.93;;;;;;;;;;5089988;28;20479;-77
2022/04/29 14:45:02;;;;;;;13.30;8.77;;;;;;;;;;5090587;28;20463;-76
2022/04/29 14:47:30;;;;;;;17.13;10.73;;;;;;;;;;5094825;28;20537;-77
2022/04/29 14:49:57;;;;;;;14.30;9.60;;;;;;;;;;5094317;28;20451;-77
2022/04/29 14:52:24;;;;;;;11.83;8.63;;;;;;;;;;5110307;28;20542;-75
2022/04/29 14:54:51;;;;;;;9.33;7.17;;;;;;;;;;5110159;28;20453;-76
2022/04/29 14:57:18;;;;;;;13.00;8.43;;;;;;;;;;5109495;28;20736;-75
2022/04/29 14:59:47;;;;;;;10.40;8.47;;;;;;;;;;5092253;28;20451;-77
2022/04/29 15:02:14;;;;;;;14.50;9.53;;;;;;;;;;5091937;28;20520;-77
2022/04/29 15:04:41;;;;;;;10.20;8.03;;;;;;;;;;5091020;28;20884;-76
2022/04/29 15:07:08;;;;;;;10.87;7.00;;;;;;;;;;5097507;28;20783;-76